createdAt,value
2017-12-26T00:02:26.612Z,5.10
2017-12-26T00:04:54.099Z,5.07
2017-12-26T00:07:21.545Z,5.53
2017-12-26T00:09:49.056Z,5.40
2017-12-26T00:12:16.485Z,5.23
2017-12-26T00:14:43.912Z,5.10
2017-12-26T00:17:12.104Z,5.73
2017-12-26T00:19:39.541Z,5.20
2017-12-26T00:22:07.734Z,5.60
2017-12-26T00:24:35.233Z,5.57
2017-12-26T00:27:02.677Z,6.37
2017-12-26T00:29:30.111Z,5.97
2017-12-26T00:31:57.621Z,5.67
2017-12-26T00:34:25.072Z,7.30
2017-12-26T00:36:52.501Z,6.20
2017-12-26T00:39:19.935Z,7.10
2017-12-26T00:41:48.132Z,6.37
2017-12-26T00:44:15.569Z,6.53
2017-12-26T00:46:43.001Z,7.87
2017-12-26T00:49:11.237Z,7.17
2017-12-26T00:51:38.675Z,7.13
2017-12-26T00:54:06.096Z,6.80
2017-12-26T00:56:34.305Z,7.13
2017-12-26T00:59:01.763Z,7.90
2017-12-26T01:01:29.236Z,7.17
2017-12-26T01:03:56.682Z,7.03
2017-12-26T01:06:24.114Z,7.83
2017-12-26T01:08:51.543Z,7.63
2017-12-26T01:11:19.061Z,7.37
2017-12-26T01:13:46.517Z,7.47
2017-12-26T01:16:13.940Z,7.53
2017-12-26T01:18:41.385Z,7.77
2017-12-26T01:21:09.578Z,7.03
2017-12-26T01:23:37.023Z,7.97
2017-12-26T01:26:10.141Z,6.90
2017-12-26T01:28:37.550Z,7.93
2017-12-26T01:31:05.748Z,8.10
2017-12-26T01:33:33.950Z,7.80
2017-12-26T01:36:01.417Z,8.07
2017-12-26T01:38:28.896Z,8.60
2017-12-26T01:40:56.432Z,8.33
2017-12-26T01:43:23.896Z,8.30
2017-12-26T01:45:51.357Z,7.67
2017-12-26T01:48:19.406Z,8.07
2017-12-26T01:50:46.893Z,8.10
2017-12-26T01:53:14.437Z,7.90
2017-12-26T01:55:41.993Z,7.37
2017-12-26T01:58:09.421Z,6.93
2017-12-26T02:00:37.739Z,7.47
2017-12-26T02:03:05.273Z,6.90
2017-12-26T02:05:32.753Z,7.27
2017-12-26T02:08:00.215Z,7.37
2017-12-26T02:10:27.670Z,7.63
2017-12-26T02:12:55.122Z,6.53
2017-12-26T02:15:22.578Z,7.10
2017-12-26T02:17:50.021Z,7.37
2017-12-26T02:20:17.476Z,6.47
2017-12-26T02:22:44.951Z,6.80
2017-12-26T02:25:12.385Z,6.67
2017-12-26T02:27:39.813Z,7.33
2017-12-26T02:30:08.035Z,7.27
2017-12-26T02:32:35.484Z,6.93
2017-12-26T02:35:02.957Z,7.37
2017-12-26T02:37:30.395Z,7.33
2017-12-26T02:39:57.870Z,6.43
2017-12-26T02:42:25.317Z,7.80
2017-12-26T02:44:52.765Z,7.10
2017-12-26T02:47:20.213Z,7.30
2017-12-26T02:49:47.690Z,7.53
2017-12-26T02:52:15.123Z,8.10
2017-12-26T02:54:42.569Z,8.07
2017-12-26T02:57:10.074Z,8.33
2017-12-26T02:59:37.497Z,8.13
2017-12-26T03:02:04.973Z,8.87
2017-12-26T03:04:32.409Z,8.53
2017-12-26T03:06:59.920Z,8.50
2017-12-26T03:09:27.360Z,8.93
2017-12-26T03:11:54.840Z,8.63
2017-12-26T03:14:22.264Z,8.97
2017-12-26T03:16:49.709Z,9.20
2017-12-26T03:19:17.164Z,9.07
2017-12-26T03:21:44.605Z,8.67
2017-12-26T03:24:12.813Z,9.50
2017-12-26T03:26:40.279Z,8.83
2017-12-26T03:29:07.710Z,8.80
2017-12-26T03:31:35.158Z,9.07
2017-12-26T03:34:02.633Z,9.07
2017-12-26T03:36:30.066Z,9.83
2017-12-26T03:38:57.508Z,9.20
2017-12-26T03:41:25.716Z,9.23
2017-12-26T03:43:53.141Z,9.53
2017-12-26T03:46:21.460Z,10.03
2017-12-26T03:48:48.904Z,8.83
2017-12-26T03:51:16.350Z,8.50
2017-12-26T03:53:43.793Z,9.23
2017-12-26T03:56:11.293Z,10.13
2017-12-26T03:58:38.732Z,10.03
2017-12-26T04:01:06.191Z,9.57
2017-12-26T04:03:33.658Z,9.37
2017-12-26T04:06:01.095Z,9.87
2017-12-26T04:08:28.643Z,8.77
2017-12-26T04:10:56.039Z,10.23
2017-12-26T04:13:23.472Z,9.10
2017-12-26T04:15:50.913Z,8.90
2017-12-26T04:18:18.341Z,8.50
2017-12-26T04:20:45.864Z,9.63
2017-12-26T04:23:13.312Z,10.13
2017-12-26T04:25:40.781Z,9.73
2017-12-26T04:28:08.234Z,9.10
2017-12-26T04:30:35.678Z,10.37
2017-12-26T04:33:03.174Z,9.30
2017-12-26T04:35:30.709Z,9.90
2017-12-26T04:37:58.165Z,9.90
2017-12-26T04:40:25.632Z,9.00
2017-12-26T04:42:53.069Z,8.80
2017-12-26T04:45:20.536Z,9.77
2017-12-26T04:47:47.981Z,9.50
2017-12-26T04:50:15.407Z,9.20
2017-12-26T04:52:43.721Z,9.50
2017-12-26T04:55:11.177Z,9.90
2017-12-26T04:57:38.608Z,9.80
2017-12-26T05:00:06.060Z,9.43
2017-12-26T05:02:34.264Z,9.40
2017-12-26T05:05:01.753Z,9.30
2017-12-26T05:07:29.192Z,9.20
2017-12-26T05:09:56.637Z,10.10
2017-12-26T05:12:24.195Z,10.20
2017-12-26T05:14:51.669Z,9.73
2017-12-26T05:17:19.133Z,9.87
2017-12-26T05:19:47.401Z,10.23
2017-12-26T05:22:14.898Z,8.87
2017-12-26T05:24:43.125Z,9.17
2017-12-26T05:27:10.549Z,9.63
2017-12-26T05:29:38.751Z,9.43
2017-12-26T05:32:06.188Z,10.30
2017-12-26T05:34:33.617Z,8.80
2017-12-26T05:37:01.835Z,8.30
2017-12-26T05:39:29.315Z,6.90
2017-12-26T05:41:56.769Z,8.07
2017-12-26T05:44:24.215Z,7.80
2017-12-26T05:46:51.649Z,6.13
2017-12-26T05:49:19.082Z,5.30
2017-12-26T05:51:46.510Z,5.97
2017-12-26T05:54:14.041Z,5.17
2017-12-26T05:56:41.512Z,5.40
2017-12-26T05:59:08.970Z,4.53
2017-12-26T06:01:36.408Z,4.23
2017-12-26T06:04:03.890Z,4.10
2017-12-26T06:06:31.329Z,3.77
2017-12-26T06:08:58.760Z,3.90
2017-12-26T06:11:26.245Z,2.60
2017-12-26T06:13:53.700Z,2.70
2017-12-26T06:16:21.154Z,3.20
2017-12-26T06:18:48.585Z,2.83
2017-12-26T06:21:16.024Z,2.13
2017-12-26T06:23:44.229Z,2.10
2017-12-26T06:26:11.653Z,1.60
2017-12-26T06:28:39.901Z,2.37
2017-12-26T06:31:07.335Z,2.07
2017-12-26T06:33:34.805Z,2.33
2017-12-26T06:36:02.349Z,2.67
2017-12-26T06:38:29.812Z,3.13
2017-12-26T06:40:57.273Z,2.33
2017-12-26T06:43:24.732Z,2.90
2017-12-26T06:45:52.157Z,2.60
2017-12-26T06:48:19.663Z,2.50
2017-12-26T06:50:47.213Z,2.50
2017-12-26T06:53:14.661Z,2.40
2017-12-26T06:55:42.118Z,2.43
2017-12-26T06:58:09.572Z,1.77
2017-12-26T07:00:37.036Z,2.40
2017-12-26T07:03:04.473Z,2.23
2017-12-26T07:05:31.932Z,2.60
2017-12-26T07:07:59.403Z,2.37
2017-12-26T07:10:26.858Z,1.90
2017-12-26T07:12:54.298Z,1.70
2017-12-26T07:15:21.730Z,1.90
2017-12-26T07:17:49.953Z,1.30
2017-12-26T07:20:23.341Z,1.77
2017-12-26T07:22:50.774Z,1.53
2017-12-26T07:25:18.197Z,1.60
2017-12-26T07:27:46.403Z,1.67
2017-12-26T07:30:13.829Z,1.50
2017-12-26T07:32:42.065Z,1.40
2017-12-26T07:35:09.508Z,1.27
2017-12-26T07:37:36.981Z,1.40
2017-12-26T07:40:04.407Z,1.50
2017-12-26T07:42:31.844Z,1.20
2017-12-26T07:45:00.042Z,2.10
2017-12-26T07:47:27.476Z,2.97
2017-12-26T07:49:55.693Z,2.40
2017-12-26T07:52:23.122Z,3.30
2017-12-26T07:54:50.545Z,3.13
2017-12-26T07:57:17.985Z,4.17
2017-12-26T07:59:45.421Z,4.60
2017-12-26T08:02:12.854Z,4.83
2017-12-26T08:04:40.298Z,5.47
2017-12-26T08:07:08.589Z,5.43
2017-12-26T08:09:36.009Z,5.17
2017-12-26T08:12:03.445Z,5.10
2017-12-26T08:14:30.888Z,5.27
2017-12-26T08:16:58.353Z,4.40
2017-12-26T08:19:25.805Z,4.93
2017-12-26T08:21:53.265Z,4.90
2017-12-26T08:24:20.741Z,5.17
2017-12-26T08:26:48.193Z,5.07
2017-12-26T08:29:15.617Z,5.33
2017-12-26T08:31:43.049Z,4.80
2017-12-26T08:34:11.254Z,4.90
2017-12-26T08:36:38.698Z,4.80
2017-12-26T08:39:06.133Z,4.27
2017-12-26T08:41:34.347Z,4.33
2017-12-26T08:44:01.771Z,3.73
2017-12-26T08:46:29.960Z,3.90
2017-12-26T08:48:57.421Z,3.93
2017-12-26T08:51:24.901Z,4.60
2017-12-26T08:53:52.341Z,3.53
2017-12-26T08:56:19.912Z,3.23
2017-12-26T08:58:47.339Z,3.70
2017-12-26T09:01:14.789Z,3.20
2017-12-26T09:03:42.995Z,3.90
2017-12-26T09:06:10.421Z,3.50
2017-12-26T09:08:38.637Z,2.70
2017-12-26T09:11:06.086Z,2.87
2017-12-26T09:13:33.552Z,2.90
2017-12-26T09:16:00.979Z,2.80
2017-12-26T09:18:28.423Z,3.13
2017-12-26T09:20:56.612Z,2.57
2017-12-26T09:23:24.101Z,2.63
2017-12-26T09:25:51.705Z,3.03
2017-12-26T09:28:19.131Z,3.83
2017-12-26T09:30:46.585Z,2.73
2017-12-26T09:33:14.027Z,3.23
2017-12-26T09:35:41.454Z,3.33
2017-12-26T09:38:08.950Z,2.83
2017-12-26T09:40:36.396Z,2.53
2017-12-26T09:43:03.825Z,3.53
2017-12-26T09:45:31.253Z,2.97
2017-12-26T09:47:58.705Z,2.93
2017-12-26T09:50:26.899Z,2.87
2017-12-26T09:52:55.121Z,2.93
2017-12-26T09:55:22.565Z,2.37
2017-12-26T09:57:49.993Z,2.20
2017-12-26T10:00:18.181Z,2.67
2017-12-26T10:02:45.756Z,2.47
2017-12-26T10:05:13.161Z,2.10
2017-12-26T10:07:40.692Z,3.00
2017-12-26T10:10:08.252Z,2.47
2017-12-26T10:12:35.689Z,2.40
2017-12-26T10:15:03.116Z,2.93
2017-12-26T10:17:31.342Z,2.53
2017-12-26T10:19:58.839Z,3.23
2017-12-26T10:22:28.956Z,3.17
2017-12-26T10:25:00.363Z,2.77
2017-12-26T10:27:27.921Z,2.60
2017-12-26T10:29:55.409Z,3.33
2017-12-26T10:32:22.916Z,3.20
2017-12-26T10:34:50.403Z,2.13
2017-12-26T10:37:17.867Z,1.90
2017-12-26T10:39:46.755Z,2.30
2017-12-26T10:42:14.265Z,3.13
2017-12-26T10:44:42.501Z,2.43
2017-12-26T10:47:10.209Z,2.53
2017-12-26T10:49:37.695Z,2.43
2017-12-26T10:52:05.179Z,2.63
2017-12-26T10:54:33.026Z,3.60
2017-12-26T10:57:00.472Z,2.93
2017-12-26T10:59:27.961Z,2.43
2017-12-26T11:01:55.435Z,2.20
2017-12-26T11:04:22.949Z,2.70
2017-12-26T11:06:50.415Z,2.20
2017-12-26T11:09:17.851Z,2.23
2017-12-26T11:11:45.277Z,2.47
2017-12-26T11:14:13.473Z,2.83
2017-12-26T11:16:40.955Z,2.30
2017-12-26T11:19:08.405Z,2.17
2017-12-26T11:21:35.840Z,2.50
2017-12-26T11:24:03.277Z,1.90
2017-12-26T11:26:31.469Z,2.30
2017-12-26T11:28:59.001Z,2.37
2017-12-26T11:31:26.811Z,2.47
2017-12-26T11:33:54.286Z,2.27
2017-12-26T11:36:21.713Z,1.57
2017-12-26T11:38:49.156Z,2.40
2017-12-26T11:41:17.366Z,2.07
2017-12-26T11:43:44.789Z,2.37
2017-12-26T11:46:12.229Z,2.37
2017-12-26T11:48:40.453Z,2.30
2017-12-26T11:51:07.885Z,1.90
2017-12-26T11:53:35.333Z,1.90
2017-12-26T11:56:02.842Z,2.10
2017-12-26T11:58:30.285Z,1.57
2017-12-26T12:00:57.741Z,2.40
2017-12-26T12:03:25.169Z,1.77
2017-12-26T12:05:52.658Z,2.00
2017-12-26T12:08:20.116Z,2.00
2017-12-26T12:10:47.566Z,2.10
2017-12-26T12:13:15.025Z,1.83
2017-12-26T12:15:42.481Z,1.57
2017-12-26T12:18:09.937Z,2.00
2017-12-26T12:20:37.373Z,1.97
2017-12-26T12:23:04.856Z,2.80
2017-12-26T12:25:32.309Z,1.80
2017-12-26T12:27:59.966Z,1.83
2017-12-26T12:30:27.437Z,1.50
2017-12-26T12:32:54.894Z,1.97
2017-12-26T12:35:22.322Z,1.50
2017-12-26T12:37:49.769Z,1.50
2017-12-26T12:40:17.977Z,1.80
2017-12-26T12:42:45.448Z,2.00
2017-12-26T12:45:13.209Z,2.03
2017-12-26T12:47:40.662Z,1.87
2017-12-26T12:50:08.096Z,2.30
2017-12-26T12:52:35.568Z,2.00
2017-12-26T12:55:03.005Z,2.23
2017-12-26T12:57:30.436Z,2.43
2017-12-26T12:59:58.676Z,2.63
2017-12-26T13:02:26.121Z,2.30
2017-12-26T13:04:53.547Z,2.20
2017-12-26T13:07:20.985Z,2.57
2017-12-26T13:09:49.202Z,2.17
2017-12-26T13:12:16.680Z,3.03
2017-12-26T13:14:44.113Z,2.60
2017-12-26T13:17:12.053Z,2.20
2017-12-26T13:19:39.556Z,2.03
2017-12-26T13:22:06.992Z,3.03
2017-12-26T13:24:34.464Z,2.27
2017-12-26T13:27:01.966Z,2.70
2017-12-26T13:29:30.161Z,2.30
2017-12-26T13:31:57.657Z,2.30
2017-12-26T13:34:25.105Z,1.90
2017-12-26T13:36:53.335Z,2.10
2017-12-26T13:39:20.850Z,2.47
2017-12-26T13:41:48.293Z,2.40
2017-12-26T13:44:15.751Z,2.20
2017-12-26T13:46:43.161Z,2.30
2017-12-26T13:49:11.370Z,2.37
2017-12-26T13:51:38.831Z,2.07
2017-12-26T13:54:06.250Z,1.60
2017-12-26T13:56:34.499Z,2.00
2017-12-26T13:59:02.357Z,2.10
2017-12-26T14:01:29.789Z,2.63
2017-12-26T14:03:57.256Z,2.23
2017-12-26T14:06:24.721Z,2.27
2017-12-26T14:08:52.183Z,1.90
2017-12-26T14:11:19.641Z,3.03
2017-12-26T14:13:47.184Z,2.63
2017-12-26T14:16:14.652Z,3.17
2017-12-26T14:18:42.085Z,3.10
2017-12-26T14:21:09.567Z,3.73
2017-12-26T14:23:37.013Z,2.83
2017-12-26T14:26:04.451Z,2.30
2017-12-26T14:28:32.022Z,2.43
2017-12-26T14:30:59.505Z,2.80
2017-12-26T14:33:26.949Z,2.90
2017-12-26T14:35:54.389Z,2.67
2017-12-26T14:38:21.830Z,3.63
2017-12-26T14:40:49.275Z,2.63
2017-12-26T14:43:17.477Z,3.30
2017-12-26T14:45:45.157Z,3.57
2017-12-26T14:48:12.599Z,3.60
2017-12-26T14:50:40.069Z,3.73
2017-12-26T14:53:07.516Z,3.47
2017-12-26T14:55:35.034Z,3.03
2017-12-26T14:58:03.988Z,4.10
2017-12-26T15:00:31.417Z,3.23
2017-12-26T15:02:58.868Z,3.70
2017-12-26T15:05:26.316Z,3.13
2017-12-26T15:07:53.747Z,3.37
2017-12-26T15:10:21.190Z,3.30
2017-12-26T15:12:48.647Z,2.93
2017-12-26T15:15:16.064Z,3.63
2017-12-26T15:17:44.168Z,3.00
2017-12-26T15:20:12.255Z,3.73
2017-12-26T15:22:41.539Z,3.10
2017-12-26T15:25:14.540Z,3.73
2017-12-26T15:27:45.631Z,2.70
2017-12-26T15:30:14.849Z,3.33
2017-12-26T15:32:45.793Z,2.90
2017-12-26T15:35:28.292Z,3.00
2017-12-26T15:37:58.946Z,2.60
2017-12-26T15:43:20.368Z,2.73
2017-12-26T15:45:59.382Z,2.93
2017-12-26T15:48:29.270Z,3.20
2017-12-26T15:53:43.903Z,3.70
2017-12-26T15:56:15.984Z,3.47
2017-12-26T15:58:46.510Z,3.77
2017-12-26T16:01:16.633Z,3.78
2017-12-26T16:03:51.937Z,3.87
2017-12-26T16:06:21.340Z,4.10
2017-12-26T16:08:49.557Z,3.63
2017-12-26T16:11:20.595Z,4.07
2017-12-26T16:13:50.288Z,4.40
2017-12-26T16:16:20.300Z,4.17
2017-12-26T16:18:49.873Z,4.17
2017-12-26T16:21:22.278Z,4.83
2017-12-26T16:23:53.270Z,4.83
2017-12-26T16:29:04.109Z,5.07
2017-12-26T16:31:34.024Z,5.70
2017-12-26T16:34:04.353Z,5.37
2017-12-26T16:36:32.051Z,5.07
2017-12-26T16:38:59.921Z,5.33
2017-12-26T16:41:28.131Z,4.97
2017-12-26T16:43:55.600Z,5.07
2017-12-26T16:46:23.449Z,5.47
2017-12-26T16:48:50.993Z,5.20
2017-12-26T16:51:18.504Z,4.53
2017-12-26T16:53:45.925Z,4.87
2017-12-26T16:56:13.377Z,4.60
2017-12-26T16:58:40.837Z,4.10
2017-12-26T17:01:08.305Z,4.50
2017-12-26T17:03:35.769Z,4.77
2017-12-26T17:06:03.221Z,4.17
2017-12-26T17:08:30.670Z,4.47
2017-12-26T17:10:58.103Z,5.28
2017-12-26T17:13:25.605Z,4.57
2017-12-26T17:15:53.052Z,4.97
2017-12-26T17:18:20.509Z,5.37
2017-12-26T17:20:47.950Z,4.97
2017-12-26T17:23:16.535Z,5.80
2017-12-26T17:25:44.009Z,6.00
2017-12-26T17:28:11.453Z,5.60
2017-12-26T17:30:38.927Z,5.23
2017-12-26T17:33:06.354Z,5.77
2017-12-26T17:35:33.861Z,6.43
2017-12-26T17:38:01.276Z,6.40
2017-12-26T17:40:28.703Z,5.50
2017-12-26T17:42:56.926Z,5.03
2017-12-26T17:45:24.405Z,5.10
2017-12-26T17:47:52.266Z,5.83
2017-12-26T17:50:19.797Z,5.20
2017-12-26T17:52:47.352Z,4.70
2017-12-26T17:55:14.773Z,4.80
2017-12-26T17:57:42.981Z,5.00
2017-12-26T18:00:10.456Z,4.87
2017-12-26T18:02:37.916Z,4.67
2017-12-26T18:05:05.373Z,5.80
2017-12-26T18:07:32.813Z,6.53
2017-12-26T18:10:00.293Z,6.53
2017-12-26T18:12:27.857Z,6.73
2017-12-26T18:14:55.327Z,4.80
2017-12-26T18:17:22.747Z,4.63
2017-12-26T18:19:50.956Z,6.37
2017-12-26T18:22:18.382Z,5.13
2017-12-26T18:24:46.607Z,4.80
2017-12-26T18:27:14.056Z,5.22
2017-12-26T18:29:41.512Z,4.30
2017-12-26T18:32:08.958Z,4.50
2017-12-26T18:34:36.416Z,5.00
2017-12-26T18:37:03.868Z,4.37
2017-12-26T18:39:31.301Z,4.93
2017-12-26T18:41:59.557Z,5.93
2017-12-26T18:44:26.988Z,5.33
2017-12-26T18:46:54.428Z,6.07
2017-12-26T18:49:21.876Z,5.97
2017-12-26T18:51:49.316Z,5.23
2017-12-26T18:54:16.800Z,5.93
2017-12-26T18:56:44.253Z,4.93
2017-12-26T18:59:11.684Z,4.67
2017-12-26T19:01:39.116Z,5.10
2017-12-26T19:04:06.554Z,5.50
2017-12-26T19:06:33.992Z,5.67
2017-12-26T19:09:02.207Z,5.63
2017-12-26T19:11:29.640Z,5.57
2017-12-26T19:13:57.086Z,4.97
2017-12-26T19:16:24.517Z,4.77
2017-12-26T19:18:51.944Z,4.77
2017-12-26T19:21:20.145Z,5.20
2017-12-26T19:23:47.586Z,5.20
2017-12-26T19:26:15.068Z,4.47
2017-12-26T19:28:42.496Z,5.03
2017-12-26T19:31:09.932Z,5.10
2017-12-26T19:33:38.141Z,4.40
2017-12-26T19:36:05.604Z,4.83
2017-12-26T19:38:33.048Z,7.03
2017-12-26T19:41:00.528Z,6.70
2017-12-26T19:43:27.958Z,6.67
2017-12-26T19:45:55.392Z,6.77
2017-12-26T19:48:23.616Z,7.17
2017-12-26T19:50:51.072Z,6.20
2017-12-26T19:53:18.496Z,4.63
2017-12-26T19:55:45.939Z,4.70
2017-12-26T19:58:14.162Z,4.83
2017-12-26T20:00:41.588Z,4.70
2017-12-26T20:03:09.090Z,3.60
2017-12-26T20:05:36.515Z,3.90
2017-12-26T20:08:03.956Z,4.20
2017-12-26T20:10:31.405Z,4.87
2017-12-26T20:12:59.603Z,3.80
2017-12-26T20:15:27.061Z,5.57
2017-12-26T20:17:54.476Z,3.93
2017-12-26T20:20:22.672Z,4.50
2017-12-26T20:22:50.120Z,3.70
2017-12-26T20:25:18.325Z,3.57
2017-12-26T20:27:45.782Z,3.67
2017-12-26T20:30:13.386Z,4.13
2017-12-26T20:32:40.930Z,4.30
2017-12-26T20:35:08.365Z,4.60
2017-12-26T20:37:35.828Z,4.27
2017-12-26T20:40:03.278Z,3.97
2017-12-26T20:42:30.704Z,4.30
2017-12-26T20:44:58.893Z,4.77
2017-12-26T20:47:26.337Z,5.23
2017-12-26T20:49:53.765Z,5.43
2017-12-26T20:52:21.208Z,5.10
2017-12-26T20:54:48.668Z,4.30
2017-12-26T20:57:16.098Z,4.50
2017-12-26T20:59:43.525Z,3.90
2017-12-26T21:02:10.966Z,3.47
2017-12-26T21:04:39.187Z,3.97
2017-12-26T21:07:06.680Z,4.43
2017-12-26T21:09:34.207Z,4.03
2017-12-26T21:12:01.642Z,4.03
2017-12-26T21:14:29.089Z,3.93
2017-12-26T21:16:57.397Z,4.07
2017-12-26T21:19:24.825Z,4.13
2017-12-26T21:21:52.317Z,4.10
2017-12-26T21:24:19.775Z,3.33
2017-12-26T21:26:47.216Z,3.30
2017-12-26T21:29:14.691Z,3.90
2017-12-26T21:31:42.136Z,3.70
2017-12-26T21:34:09.612Z,3.60
2017-12-26T21:36:37.037Z,4.37
2017-12-26T21:39:04.472Z,3.50
2017-12-26T21:41:34.665Z,4.17
2017-12-26T21:46:41.865Z,3.67
2017-12-26T21:49:10.302Z,4.30
2017-12-26T21:51:38.933Z,3.60
2017-12-26T21:54:07.051Z,4.50
2017-12-26T21:56:37.245Z,4.17
2017-12-26T21:59:05.301Z,4.50
2017-12-26T22:01:33.049Z,3.67
2017-12-26T22:04:01.205Z,3.77
2017-12-26T22:06:28.998Z,4.07
2017-12-26T22:08:57.383Z,3.53
2017-12-26T22:11:26.085Z,4.63
2017-12-26T22:13:55.452Z,3.50
2017-12-26T22:16:23.220Z,3.90
2017-12-26T22:18:51.085Z,3.50
2017-12-26T22:21:22.005Z,3.63
2017-12-26T22:23:52.632Z,3.37
2017-12-26T22:26:23.629Z,4.13
2017-12-26T22:28:51.436Z,3.67
2017-12-26T22:31:20.180Z,4.73
2017-12-26T22:33:48.246Z,3.57
2017-12-26T22:36:15.997Z,3.60
2017-12-26T22:38:53.659Z,4.23
2017-12-26T22:41:22.402Z,3.40
2017-12-26T22:43:52.525Z,3.37
2017-12-26T22:46:21.006Z,3.10
2017-12-26T22:48:55.495Z,4.30
2017-12-26T22:51:26.952Z,3.67
2017-12-26T22:53:57.822Z,3.43
2017-12-26T22:59:02.572Z,3.73
2017-12-26T23:01:32.889Z,3.83
2017-12-26T23:04:08.540Z,3.70
2017-12-26T23:06:40.706Z,3.83
2017-12-26T23:09:10.819Z,3.50
2017-12-26T23:11:39.197Z,3.67
2017-12-26T23:14:15.461Z,3.17
2017-12-26T23:16:51.007Z,3.73
2017-12-26T23:19:19.373Z,3.53
2017-12-26T23:21:48.994Z,3.43
2017-12-26T23:24:23.622Z,3.50
2017-12-26T23:26:58.040Z,3.20
2017-12-26T23:29:31.334Z,3.50
2017-12-26T23:32:04.731Z,3.50
2017-12-26T23:34:39.803Z,4.37
2017-12-26T23:37:14.391Z,2.80
2017-12-26T23:39:48.505Z,2.77
2017-12-26T23:42:27.238Z,2.70
2017-12-26T23:45:12.291Z,2.70
2017-12-26T23:47:56.739Z,2.73
2017-12-26T23:50:31.808Z,2.90
2017-12-26T23:53:08.781Z,2.87
2017-12-26T23:55:47.176Z,2.77
2017-12-26T23:58:22.945Z,3.27
